createdAt,value
2023-11-15T00:01:38.056Z,9.20
2023-11-15T00:04:05.804Z,9.13
2023-11-15T00:06:33.424Z,9.16
2023-11-15T00:09:00.777Z,9.16
2023-11-15T00:11:28.195Z,9.11
2023-11-15T00:13:56.051Z,9.05
2023-11-15T00:16:23.471Z,9.02
2023-11-15T00:18:50.930Z,9.00
2023-11-15T00:21:19.283Z,9.00
2023-11-15T00:23:46.804Z,9.02
2023-11-15T00:26:14.141Z,9.01
2023-11-15T00:28:50.927Z,9.02
2023-11-15T00:31:18.358Z,9.01
2023-11-15T00:33:45.804Z,8.98
2023-11-15T00:36:13.312Z,8.99
2023-11-15T00:38:41.352Z,8.98
2023-11-15T00:41:09.594Z,8.97
2023-11-15T00:43:36.947Z,8.94
2023-11-15T00:46:05.260Z,8.98
2023-11-15T00:48:33.536Z,8.97
2023-11-15T00:51:01.103Z,8.95
2023-11-15T00:53:28.436Z,8.95
2023-11-15T00:55:55.771Z,8.97
2023-11-15T00:58:24.436Z,8.97
2023-11-15T01:00:56.219Z,8.98
2023-11-15T01:03:30.075Z,8.98
2023-11-15T01:05:57.839Z,8.99
2023-11-15T01:08:25.278Z,8.95
2023-11-15T01:10:53.153Z,8.93
2023-11-15T01:13:20.868Z,8.91
2023-11-15T01:15:48.398Z,8.91
2023-11-15T01:18:15.817Z,8.91
2023-11-15T01:20:43.558Z,8.88
2023-11-15T01:23:11.018Z,8.89
2023-11-15T01:25:38.367Z,8.85
2023-11-15T01:28:05.717Z,8.89
2023-11-15T01:30:33.186Z,8.91
2023-11-15T01:33:00.751Z,8.95
2023-11-15T01:35:28.243Z,8.93
2023-11-15T01:37:55.686Z,8.89
2023-11-15T01:40:23.280Z,8.89
2023-11-15T01:42:50.950Z,8.89
2023-11-15T01:45:18.354Z,8.89
2023-11-15T01:47:45.743Z,8.92
2023-11-15T01:50:14.884Z,8.89
2023-11-15T01:52:42.454Z,8.90
2023-11-15T01:55:16.585Z,8.86
2023-11-15T01:57:44.397Z,8.83
2023-11-15T02:00:12.299Z,8.81
2023-11-15T02:02:43.770Z,8.80
2023-11-15T02:05:11.340Z,8.77
2023-11-15T02:07:39.151Z,8.77
2023-11-15T02:10:07.868Z,8.77
2023-11-15T02:12:35.252Z,8.75
2023-11-15T02:15:02.637Z,8.78
2023-11-15T02:17:30.081Z,8.75
2023-11-15T02:19:57.916Z,8.77
2023-11-15T02:22:26.561Z,8.78
2023-11-15T02:24:53.933Z,8.76
2023-11-15T02:27:21.262Z,8.77
2023-11-15T02:29:48.690Z,8.75
2023-11-15T02:32:16.129Z,8.79
2023-11-15T02:34:43.473Z,8.79
2023-11-15T02:37:10.799Z,8.84
2023-11-15T02:39:38.131Z,8.84
2023-11-15T02:42:05.960Z,8.87
2023-11-15T02:44:36.147Z,8.79
2023-11-15T02:47:04.281Z,8.82
2023-11-15T02:49:31.654Z,8.87
2023-11-15T02:51:58.946Z,8.86
2023-11-15T02:54:26.273Z,8.88
2023-11-15T02:56:53.575Z,8.88
2023-11-15T02:59:21.000Z,8.88
2023-11-15T03:01:49.170Z,8.87
2023-11-15T03:04:16.550Z,8.87
2023-11-15T03:06:44.261Z,8.89
2023-11-15T03:09:11.602Z,8.94
2023-11-15T03:11:38.989Z,8.93
2023-11-15T03:14:06.380Z,8.91
2023-11-15T03:16:33.727Z,8.94
2023-11-15T03:19:01.108Z,8.95
2023-11-15T03:21:28.427Z,8.97
2023-11-15T03:23:56.227Z,8.91
2023-11-15T03:26:23.625Z,8.92
2023-11-15T03:28:52.050Z,8.94
2023-11-15T03:31:19.339Z,8.92
2023-11-15T03:33:49.708Z,8.97
2023-11-15T03:36:17.257Z,8.98
2023-11-15T03:38:44.828Z,8.96
2023-11-15T03:41:12.204Z,8.87
2023-11-15T03:43:42.666Z,8.92
2023-11-15T03:46:09.966Z,8.96
2023-11-15T03:48:37.463Z,8.91
2023-11-15T03:51:05.341Z,8.95
2023-11-15T03:53:33.481Z,8.95
2023-11-15T03:56:00.866Z,8.92
2023-11-15T03:58:28.534Z,8.93
2023-11-15T04:01:01.176Z,8.91
2023-11-15T04:03:28.985Z,8.85
2023-11-15T04:05:56.472Z,8.81
2023-11-15T04:08:24.022Z,8.86
2023-11-15T04:10:51.460Z,8.89
2023-11-15T04:13:20.903Z,8.83
2023-11-15T04:15:52.137Z,8.79
2023-11-15T04:18:19.553Z,8.77
2023-11-15T04:20:46.939Z,8.77
2023-11-15T04:23:14.684Z,8.75
2023-11-15T04:25:42.006Z,8.76
2023-11-15T04:28:09.649Z,8.76
2023-11-15T04:30:36.956Z,8.79
2023-11-15T04:33:04.318Z,8.75
2023-11-15T04:35:31.717Z,8.75
2023-11-15T04:37:59.063Z,8.80
2023-11-15T04:40:28.126Z,8.85
2023-11-15T04:42:55.478Z,8.88
2023-11-15T04:45:23.558Z,8.89
2023-11-15T04:47:51.057Z,8.90
2023-11-15T04:50:18.499Z,8.91
2023-11-15T04:52:45.810Z,8.95
2023-11-15T04:55:13.257Z,8.86
2023-11-15T04:57:40.639Z,8.85
2023-11-15T05:00:12.639Z,8.77
2023-11-15T05:02:40.104Z,8.70
2023-11-15T05:05:07.609Z,8.57
2023-11-15T05:07:36.829Z,8.48
2023-11-15T05:10:06.100Z,8.40
2023-11-15T05:12:33.478Z,8.43
2023-11-15T05:15:00.925Z,8.45
2023-11-15T05:17:28.654Z,8.38
2023-11-15T05:19:56.088Z,8.29
2023-11-15T05:22:23.458Z,8.27
2023-11-15T05:24:50.770Z,8.26
2023-11-15T05:27:19.163Z,8.18
2023-11-15T05:29:47.043Z,8.14
2023-11-15T05:32:14.453Z,8.12
2023-11-15T05:34:41.804Z,8.08
2023-11-15T05:37:09.088Z,8.05
2023-11-15T05:39:36.397Z,8.10
2023-11-15T05:42:04.008Z,8.18
2023-11-15T05:44:32.451Z,8.23
2023-11-15T05:46:59.855Z,8.33
2023-11-15T05:49:32.046Z,8.40
2023-11-15T05:52:06.152Z,8.43
2023-11-15T05:54:33.550Z,8.53
2023-11-15T05:57:00.955Z,8.56
2023-11-15T05:59:28.390Z,8.62
2023-11-15T06:01:56.134Z,8.65
2023-11-15T06:04:23.514Z,8.65
2023-11-15T06:06:50.872Z,8.62
2023-11-15T06:09:18.829Z,8.56
2023-11-15T06:11:46.420Z,8.55
2023-11-15T06:14:16.940Z,8.66
2023-11-15T06:16:44.332Z,8.68
2023-11-15T06:19:11.672Z,8.71
2023-11-15T06:21:42.968Z,8.61
2023-11-15T06:24:10.552Z,8.89
2023-11-15T06:26:38.723Z,8.91
2023-11-15T06:29:06.708Z,9.03
2023-11-15T06:31:34.167Z,9.08
2023-11-15T06:34:01.563Z,9.14
2023-11-15T06:36:29.659Z,9.21
2023-11-15T06:38:57.065Z,9.25
2023-11-15T06:41:24.921Z,9.26
2023-11-15T06:43:52.266Z,9.32
2023-11-15T06:46:19.828Z,9.42
2023-11-15T06:48:48.160Z,9.49
2023-11-15T06:51:16.855Z,9.51
2023-11-15T06:53:47.082Z,9.51
2023-11-15T06:56:15.001Z,9.52
2023-11-15T06:58:42.801Z,9.52
2023-11-15T07:01:10.591Z,9.50
2023-11-15T07:03:39.266Z,9.50
2023-11-15T07:06:08.373Z,9.53
2023-11-15T07:08:39.461Z,9.65
2023-11-15T07:11:09.781Z,9.70
2023-11-15T07:13:39.377Z,9.75
2023-11-15T07:16:10.562Z,9.89
2023-11-15T07:18:39.463Z,9.91
2023-11-15T07:21:08.806Z,9.88
2023-11-15T07:23:37.148Z,10.05
2023-11-15T07:26:05.467Z,10.10
2023-11-15T07:28:32.851Z,10.07
2023-11-15T07:31:00.820Z,10.11
2023-11-15T07:33:28.286Z,10.12
2023-11-15T07:38:38.777Z,10.20
2023-11-15T07:41:06.205Z,10.29
2023-11-15T07:43:33.501Z,10.39
2023-11-15T07:46:00.922Z,10.35
2023-11-15T07:48:28.660Z,10.45
2023-11-15T07:50:57.547Z,10.47
2023-11-15T07:53:25.966Z,10.42
2023-11-15T07:55:53.980Z,10.59
2023-11-15T07:58:21.318Z,10.31
2023-11-15T08:00:49.112Z,10.18
2023-11-15T08:03:17.398Z,10.10
2023-11-15T08:05:45.109Z,10.03
2023-11-15T08:08:12.451Z,9.92
2023-11-15T08:10:43.400Z,9.90
2023-11-15T08:13:10.740Z,9.89
2023-11-15T08:15:43.412Z,9.91
2023-11-15T08:18:11.137Z,9.90
2023-11-15T08:20:38.576Z,9.88
2023-11-15T08:23:06.163Z,9.89
2023-11-15T08:25:33.484Z,9.83
2023-11-15T08:28:02.950Z,9.89
2023-11-15T08:30:30.814Z,9.94
2023-11-15T08:32:58.174Z,10.08
2023-11-15T08:35:25.582Z,10.15
2023-11-15T08:37:55.683Z,10.25
2023-11-15T08:40:29.134Z,10.31
2023-11-15T08:42:58.576Z,10.39
2023-11-15T08:45:26.898Z,10.40
2023-11-15T08:47:58.658Z,10.53
2023-11-15T08:50:26.640Z,10.59
2023-11-15T08:52:55.742Z,10.66
2023-11-15T08:55:23.056Z,10.76
2023-11-15T08:57:50.332Z,10.90
2023-11-15T09:00:19.470Z,10.98
2023-11-15T09:02:48.650Z,11.10
2023-11-15T09:05:17.221Z,11.30
2023-11-15T09:07:45.180Z,11.35
2023-11-15T09:10:14.787Z,11.43
2023-11-15T09:12:42.742Z,11.62
2023-11-15T09:15:13.551Z,11.71
2023-11-15T09:17:47.429Z,11.85
2023-11-15T09:20:27.250Z,11.91
2023-11-15T09:22:55.268Z,11.90
2023-11-15T09:25:23.519Z,12.00
2023-11-15T09:27:51.608Z,11.88
2023-11-15T09:30:28.363Z,11.68
2023-11-15T09:32:56.134Z,11.71
2023-11-15T09:35:29.046Z,11.73
2023-11-15T09:37:58.539Z,11.72
2023-11-15T09:40:26.840Z,11.73
2023-11-15T09:42:55.731Z,11.79
2023-11-15T09:45:24.691Z,11.84
2023-11-15T09:47:52.717Z,11.87
2023-11-15T09:50:28.413Z,11.99
2023-11-15T09:52:59.780Z,12.26
2023-11-15T09:55:30.410Z,12.43
2023-11-15T09:57:57.808Z,12.53
2023-11-15T10:00:30.501Z,12.47
2023-11-15T10:02:58.538Z,12.61
2023-11-15T10:05:29.675Z,12.65
2023-11-15T10:08:09.936Z,12.78
2023-11-15T10:10:37.410Z,12.80
2023-11-15T10:13:15.632Z,12.82
2023-11-15T10:15:45.785Z,12.95
2023-11-15T10:18:15.664Z,13.03
2023-11-15T10:20:43.985Z,13.27
2023-11-15T10:23:12.965Z,13.41
2023-11-15T10:25:53.508Z,13.58
2023-11-15T10:28:23.912Z,13.57
2023-11-15T10:51:58.029Z,13.06
2023-11-15T10:54:29.722Z,13.18
2023-11-15T10:56:57.709Z,13.35
2023-11-15T10:59:26.985Z,13.39
2023-11-15T11:01:55.830Z,13.47
2023-11-15T11:04:23.454Z,13.36
2023-11-15T11:06:59.384Z,13.61
2023-11-15T11:09:59.180Z,13.70
2023-11-15T11:12:26.792Z,13.87
2023-11-15T11:15:20.756Z,13.90
2023-11-15T11:17:50.015Z,13.92
2023-11-15T11:20:27.331Z,13.94
2023-11-15T11:23:25.039Z,14.08
2023-11-15T11:26:31.157Z,13.93
2023-11-15T11:29:05.030Z,14.35
2023-11-15T11:31:32.604Z,14.57
2023-11-15T11:34:10.003Z,15.03
2023-11-15T11:37:03.312Z,15.26
2023-11-15T11:39:47.402Z,15.04
2023-11-15T11:42:28.016Z,14.94
2023-11-15T11:44:58.536Z,14.83
2023-11-15T11:47:26.211Z,14.78
2023-11-15T11:49:53.836Z,14.56
2023-11-15T11:52:21.260Z,14.51
2023-11-15T11:54:53.908Z,14.48
2023-11-15T11:57:22.557Z,14.42
2023-11-15T12:00:03.273Z,14.36
2023-11-15T12:02:36.118Z,14.37
2023-11-15T12:05:04.403Z,14.40
2023-11-15T12:07:31.791Z,14.39
2023-11-15T12:10:06.326Z,14.19
2023-11-15T12:12:33.677Z,14.16
2023-11-15T12:15:01.131Z,14.06
2023-11-15T12:17:41.678Z,14.01
2023-11-15T12:20:10.303Z,14.03
2023-11-15T12:22:47.267Z,13.99
2023-11-15T12:25:15.655Z,13.99
2023-11-15T12:27:45.913Z,13.92
2023-11-15T12:30:13.398Z,13.85
2023-11-15T12:32:43.134Z,13.69
2023-11-15T12:35:13.137Z,13.74
2023-11-15T12:37:40.478Z,13.76
2023-11-15T12:40:24.009Z,13.75
2023-11-15T12:42:57.625Z,13.71
2023-11-15T12:45:35.287Z,13.70
2023-11-15T12:48:06.605Z,13.60
2023-11-15T12:50:35.910Z,13.55
2023-11-15T12:53:07.468Z,13.56
2023-11-15T12:55:54.437Z,13.52
2023-11-15T12:58:30.625Z,13.50
2023-11-15T13:01:02.194Z,13.43
2023-11-15T13:03:32.239Z,13.35
2023-11-15T13:06:14.457Z,13.30
2023-11-15T13:08:51.789Z,13.25
2023-11-15T13:11:26.135Z,13.31
2023-11-15T13:13:53.694Z,13.26
2023-11-15T13:16:21.680Z,13.21
2023-11-15T13:18:49.930Z,13.24
2023-11-15T13:21:18.063Z,13.23
2023-11-15T13:23:50.460Z,13.28
2023-11-15T13:26:18.161Z,13.19
2023-11-15T13:28:48.788Z,13.21
2023-11-15T13:31:18.961Z,13.20
2023-11-15T13:33:48.335Z,13.22
2023-11-15T13:36:20.228Z,13.21
2023-11-15T13:38:47.999Z,13.19
2023-11-15T13:41:16.882Z,13.14
2023-11-15T13:43:48.171Z,13.14
2023-11-15T13:46:15.894Z,13.18
2023-11-15T13:48:43.601Z,13.15
2023-11-15T13:51:13.999Z,13.16
2023-11-15T13:53:42.083Z,13.15
2023-11-15T13:56:10.053Z,13.15
2023-11-15T13:58:37.848Z,13.15
2023-11-15T14:01:06.322Z,13.11
2023-11-15T14:03:34.472Z,13.08
2023-11-15T14:06:06.389Z,13.05
2023-11-15T14:11:14.174Z,12.97
2023-11-15T14:13:43.736Z,12.90
2023-11-15T14:16:11.411Z,12.87
2023-11-15T14:18:38.805Z,12.81
2023-11-15T14:21:07.205Z,12.73
2023-11-15T14:23:34.804Z,12.76
2023-11-15T14:26:03.585Z,12.70
2023-11-15T14:28:31.060Z,12.68
2023-11-15T14:30:58.681Z,12.63
2023-11-15T14:33:26.203Z,12.66
2023-11-15T14:35:53.698Z,12.64
2023-11-15T14:38:21.062Z,12.61
2023-11-15T14:40:48.731Z,12.61
2023-11-15T14:43:16.951Z,12.63
2023-11-15T14:45:48.784Z,12.65
2023-11-15T14:48:16.955Z,12.62
2023-11-15T14:50:44.373Z,12.70
2023-11-15T14:53:23.775Z,12.59
2023-11-15T14:55:51.710Z,12.59
2023-11-15T14:58:23.964Z,12.54
2023-11-15T15:00:52.264Z,12.48
2023-11-15T15:03:20.851Z,12.50
2023-11-15T15:05:51.531Z,12.45
2023-11-15T15:08:19.976Z,12.34
2023-11-15T15:10:50.573Z,12.30
2023-11-15T15:13:17.987Z,12.16
2023-11-15T15:15:45.339Z,12.20
2023-11-15T15:18:16.917Z,12.15
2023-11-15T15:20:49.454Z,12.17
2023-11-15T15:23:18.221Z,12.10
2023-11-15T15:25:45.676Z,12.04
2023-11-15T15:28:13.641Z,11.96
2023-11-15T15:30:41.044Z,11.94
2023-11-15T15:33:09.106Z,11.95
2023-11-15T15:35:39.361Z,11.98
2023-11-15T15:38:09.528Z,11.86
2023-11-15T15:40:39.840Z,11.91
2023-11-15T15:43:07.373Z,11.86
2023-11-15T15:45:36.850Z,11.73
2023-11-15T15:48:05.973Z,11.75
2023-11-15T15:50:33.961Z,11.69
2023-11-15T15:53:01.441Z,11.64
2023-11-15T15:55:28.849Z,11.62
2023-11-15T15:57:56.189Z,11.58
2023-11-15T16:00:25.103Z,11.58
2023-11-15T16:02:54.287Z,11.64
2023-11-15T16:05:22.908Z,11.62
2023-11-15T16:07:50.306Z,11.52
2023-11-15T16:10:17.629Z,11.57
2023-11-15T16:12:45.001Z,11.51
2023-11-15T16:15:17.982Z,11.46
2023-11-15T16:17:45.955Z,11.46
2023-11-15T16:20:13.874Z,11.41
2023-11-15T16:22:41.187Z,11.42
2023-11-15T16:25:09.544Z,11.31
2023-11-15T16:27:37.813Z,11.31
2023-11-15T16:30:06.538Z,11.24
2023-11-15T16:32:36.418Z,11.25
2023-11-15T16:35:06.322Z,11.17
2023-11-15T16:37:36.876Z,11.12
2023-11-15T16:40:06.703Z,11.11
2023-11-15T16:42:34.402Z,11.12
2023-11-15T16:45:02.604Z,11.06
2023-11-15T16:47:30.245Z,11.04
2023-11-15T16:49:59.272Z,10.97
2023-11-15T16:52:26.620Z,10.97
2023-11-15T16:54:53.929Z,11.04
2023-11-15T16:57:21.288Z,11.05
2023-11-15T16:59:50.553Z,11.03
2023-11-15T17:02:18.694Z,10.98
2023-11-15T17:04:46.104Z,10.88
2023-11-15T17:07:15.594Z,10.84
2023-11-15T17:09:43.900Z,10.89
2023-11-15T17:12:14.613Z,10.83
2023-11-15T17:14:42.029Z,10.73
2023-11-15T17:17:09.352Z,10.77
2023-11-15T17:19:37.151Z,10.74
2023-11-15T17:22:04.677Z,10.67
2023-11-15T17:24:31.981Z,10.59
2023-11-15T17:26:59.283Z,10.64
2023-11-15T17:29:26.679Z,10.60
2023-11-15T17:31:55.174Z,10.61
2023-11-15T17:34:22.724Z,10.54
2023-11-15T17:36:50.051Z,10.48
2023-11-15T17:39:17.414Z,10.47
2023-11-15T17:41:44.800Z,10.41
2023-11-15T17:44:15.931Z,10.38
2023-11-15T17:46:43.660Z,10.51
2023-11-15T17:49:12.240Z,10.52
2023-11-15T17:51:39.810Z,10.63
2023-11-15T17:54:08.527Z,10.54
2023-11-15T17:56:36.039Z,10.52
2023-11-15T17:59:04.586Z,10.53
2023-11-15T18:01:33.772Z,10.49
2023-11-15T18:04:01.292Z,10.48
2023-11-15T18:06:29.024Z,10.51
2023-11-15T18:08:56.613Z,10.49
2023-11-15T18:11:24.075Z,10.37
2023-11-15T18:13:51.349Z,10.32
2023-11-15T18:16:18.695Z,10.16
2023-11-15T18:18:46.057Z,10.11
2023-11-15T18:21:13.941Z,10.02
2023-11-15T18:23:41.749Z,9.87
2023-11-15T18:26:09.625Z,9.80
2023-11-15T18:28:39.227Z,10.01
2023-11-15T18:31:07.723Z,9.91
2023-11-15T18:33:35.468Z,9.77
2023-11-15T18:36:02.929Z,9.71
2023-11-15T18:38:30.201Z,9.52
2023-11-15T18:40:58.162Z,9.18
2023-11-15T18:43:25.563Z,9.36
2023-11-15T18:45:52.925Z,9.49
2023-11-15T18:48:20.376Z,9.37
2023-11-15T18:50:48.032Z,9.35
2023-11-15T18:53:16.029Z,9.44
2023-11-15T18:55:44.241Z,9.55
2023-11-15T18:58:11.564Z,9.59
2023-11-15T19:00:39.026Z,9.73
2023-11-15T19:03:09.726Z,9.82
2023-11-15T19:05:38.567Z,9.84
2023-11-15T19:08:07.635Z,9.87
2023-11-15T19:10:35.030Z,9.87
2023-11-15T19:13:02.465Z,9.88
2023-11-15T19:15:31.159Z,9.93
2023-11-15T19:17:58.816Z,9.94
2023-11-15T19:20:29.946Z,9.92
2023-11-15T19:22:58.695Z,9.88
2023-11-15T19:25:27.058Z,9.72
2023-11-15T19:27:55.117Z,9.80
2023-11-15T19:30:24.426Z,9.77
2023-11-15T19:32:54.847Z,9.77
2023-11-15T19:35:22.797Z,9.79
2023-11-15T19:37:51.848Z,9.75
2023-11-15T19:40:20.742Z,9.80
2023-11-15T19:42:49.455Z,9.84
2023-11-15T19:45:18.050Z,9.69
2023-11-15T19:47:45.612Z,9.73
2023-11-15T19:50:13.010Z,9.65
2023-11-15T19:52:41.246Z,9.62
2023-11-15T19:55:09.365Z,9.59
2023-11-15T19:57:38.409Z,9.58
2023-11-15T20:00:06.979Z,9.56
2023-11-15T20:02:41.020Z,9.53
2023-11-15T20:05:14.277Z,9.49
2023-11-15T20:07:41.630Z,9.37
2023-11-15T20:10:10.420Z,9.35
2023-11-15T20:12:40.957Z,9.38
2023-11-15T20:15:11.060Z,9.45
2023-11-15T20:17:38.843Z,9.49
2023-11-15T20:20:08.036Z,9.56
2023-11-15T20:22:45.167Z,9.54
2023-11-15T20:25:19.752Z,9.52
2023-11-15T20:27:47.302Z,9.57
2023-11-15T20:30:15.250Z,9.63
2023-11-15T20:32:42.929Z,9.66
2023-11-15T20:35:11.928Z,9.62
2023-11-15T20:37:39.458Z,9.55
2023-11-15T20:40:09.128Z,9.54
2023-11-15T20:42:36.669Z,9.49
2023-11-15T20:45:04.421Z,9.51
2023-11-15T20:47:33.452Z,9.48
2023-11-15T20:50:00.987Z,9.43
2023-11-15T20:52:28.323Z,9.43
2023-11-15T20:54:55.653Z,9.42
2023-11-15T20:57:24.097Z,9.32
2023-11-15T20:59:57.115Z,9.30
2023-11-15T21:02:26.194Z,9.33
2023-11-15T21:04:53.640Z,9.25
2023-11-15T21:07:21.038Z,9.11
2023-11-15T21:09:48.819Z,8.91
2023-11-15T21:12:16.722Z,8.66
2023-11-15T21:14:44.041Z,8.41
2023-11-15T21:17:11.343Z,8.09
2023-11-15T21:19:39.781Z,7.86
2023-11-15T21:22:07.130Z,7.71
2023-11-15T21:24:34.473Z,7.56
2023-11-15T21:27:01.914Z,7.47
2023-11-15T21:29:29.306Z,7.37
2023-11-15T21:31:57.205Z,7.34
2023-11-15T21:34:24.546Z,7.24
2023-11-15T21:36:52.527Z,7.13
2023-11-15T21:39:20.765Z,7.01
2023-11-15T21:41:48.174Z,6.88
2023-11-15T21:44:18.634Z,6.80
2023-11-15T21:46:45.938Z,6.71
2023-11-15T21:49:14.776Z,6.64
2023-11-15T21:51:42.573Z,6.57
2023-11-15T21:54:10.999Z,6.49
2023-11-15T21:56:38.338Z,6.42
2023-11-15T21:59:05.786Z,6.36
2023-11-15T22:01:33.172Z,6.32
2023-11-15T22:04:00.707Z,6.29
2023-11-15T22:06:28.228Z,6.31
2023-11-15T22:08:55.694Z,6.30
2023-11-15T22:11:23.087Z,6.23
2023-11-15T22:13:50.423Z,6.18
2023-11-15T22:16:18.089Z,6.14
2023-11-15T22:18:47.357Z,6.13
2023-11-15T22:21:14.818Z,6.04
2023-11-15T22:23:42.292Z,6.06
2023-11-15T22:26:09.652Z,6.02
2023-11-15T22:28:37.164Z,5.96
2023-11-15T22:31:04.837Z,5.93
2023-11-15T22:33:32.192Z,5.86
2023-11-15T22:36:04.569Z,5.88
2023-11-15T22:38:31.903Z,5.86
2023-11-15T22:40:59.247Z,5.80
2023-11-15T22:43:26.724Z,5.76
2023-11-15T22:45:54.261Z,5.76
2023-11-15T22:48:21.813Z,5.74
2023-11-15T22:50:49.170Z,5.72
2023-11-15T22:53:16.645Z,5.71
2023-11-15T22:55:43.947Z,5.68
2023-11-15T22:58:12.241Z,5.72
2023-11-15T23:00:39.629Z,5.74
2023-11-15T23:03:10.531Z,5.73
2023-11-15T23:05:42.032Z,5.63
2023-11-15T23:08:09.998Z,5.68
2023-11-15T23:10:39.797Z,5.57
2023-11-15T23:13:07.442Z,5.61
2023-11-15T23:15:34.982Z,5.57
2023-11-15T23:18:02.544Z,5.56
2023-11-15T23:20:35.022Z,5.50
2023-11-15T23:23:06.070Z,5.54
2023-11-15T23:25:34.299Z,5.51
2023-11-15T23:28:01.877Z,5.51
2023-11-15T23:30:29.234Z,5.50
2023-11-15T23:32:58.905Z,5.50
2023-11-15T23:35:26.384Z,5.48
2023-11-15T23:37:58.902Z,5.48
2023-11-15T23:40:26.680Z,5.49
2023-11-15T23:42:55.264Z,5.51
2023-11-15T23:45:22.945Z,5.52
2023-11-15T23:47:51.447Z,5.49
2023-11-15T23:50:19.442Z,5.41
2023-11-15T23:52:55.589Z,5.37
2023-11-15T23:55:23.001Z,5.23
2023-11-15T23:57:50.478Z,5.20
